sensor_id;sensor_type;location;lat;lon;timestamp;P1;durP1;ratioP1;P2;durP2;ratioP2
4756;SDS011;2392;52.578;13.426;2023-10-31T00:01:23;21.53;;;7.07;;
4756;SDS011;2392;52.578;13.426;2023-10-31T00:03:50;24.63;;;7.40;;
4756;SDS011;2392;52.578;13.426;2023-10-31T00:06:18;24.73;;;7.90;;
4756;SDS011;2392;52.578;13.426;2023-10-31T00:08:44;25.47;;;8.30;;
4756;SDS011;2392;52.578;13.426;2023-10-31T00:11:11;23.43;;;7.00;;
4756;SDS011;2392;52.578;13.426;2023-10-31T00:13:38;24.10;;;7.60;;
4756;SDS011;2392;52.578;13.426;2023-10-31T00:16:08;27.73;;;8.70;;
4756;SDS011;2392;52.578;13.426;2023-10-31T00:18:34;22.27;;;7.47;;
4756;SDS011;2392;52.578;13.426;2023-10-31T00:21:01;24.23;;;7.70;;
4756;SDS011;2392;52.578;13.426;2023-10-31T00:23:30;23.50;;;7.53;;
4756;SDS011;2392;52.578;13.426;2023-10-31T00:25:57;27.73;;;8.13;;
4756;SDS011;2392;52.578;13.426;2023-10-31T00:28:23;23.40;;;6.90;;
4756;SDS011;2392;52.578;13.426;2023-10-31T00:30:50;23.50;;;7.97;;
4756;SDS011;2392;52.578;13.426;2023-10-31T00:33:16;23.97;;;7.70;;
4756;SDS011;2392;52.578;13.426;2023-10-31T00:35:43;24.53;;;7.90;;
4756;SDS011;2392;52.578;13.426;2023-10-31T00:38:10;22.73;;;7.40;;
4756;SDS011;2392;52.578;13.426;2023-10-31T00:40:38;24.10;;;8.00;;
4756;SDS011;2392;52.578;13.426;2023-10-31T00:43:04;25.70;;;9.07;;
4756;SDS011;2392;52.578;13.426;2023-10-31T00:45:31;25.33;;;8.10;;
4756;SDS011;2392;52.578;13.426;2023-10-31T00:47:57;25.33;;;8.90;;
4756;SDS011;2392;52.578;13.426;2023-10-31T00:50:26;25.20;;;8.90;;
4756;SDS011;2392;52.578;13.426;2023-10-31T00:52:53;24.57;;;8.97;;
4756;SDS011;2392;52.578;13.426;2023-10-31T00:55:20;25.07;;;8.57;;
4756;SDS011;2392;52.578;13.426;2023-10-31T00:57:48;26.43;;;8.13;;
4756;SDS011;2392;52.578;13.426;2023-10-31T01:00:15;23.97;;;8.60;;
4756;SDS011;2392;52.578;13.426;2023-10-31T01:02:42;38.93;;;8.90;;
4756;SDS011;2392;52.578;13.426;2023-10-31T01:05:10;24.73;;;7.90;;
4756;SDS011;2392;52.578;13.426;2023-10-31T01:07:37;26.50;;;8.60;;
4756;SDS011;2392;52.578;13.426;2023-10-31T01:10:04;28.27;;;8.67;;
4756;SDS011;2392;52.578;13.426;2023-10-31T01:12:31;24.17;;;8.10;;
4756;SDS011;2392;52.578;13.426;2023-10-31T01:14:59;25.03;;;8.50;;
4756;SDS011;2392;52.578;13.426;2023-10-31T01:17:26;25.43;;;7.77;;
4756;SDS011;2392;52.578;13.426;2023-10-31T01:19:54;26.83;;;9.03;;
4756;SDS011;2392;52.578;13.426;2023-10-31T01:22:20;25.00;;;8.00;;
4756;SDS011;2392;52.578;13.426;2023-10-31T01:24:47;25.00;;;8.40;;
4756;SDS011;2392;52.578;13.426;2023-10-31T01:27:13;26.03;;;9.20;;
4756;SDS011;2392;52.578;13.426;2023-10-31T01:29:40;23.90;;;8.20;;
4756;SDS011;2392;52.578;13.426;2023-10-31T01:32:08;26.93;;;9.03;;
4756;SDS011;2392;52.578;13.426;2023-10-31T01:34:35;28.47;;;8.63;;
4756;SDS011;2392;52.578;13.426;2023-10-31T01:37:03;25.20;;;8.70;;
4756;SDS011;2392;52.578;13.426;2023-10-31T01:39:30;25.40;;;8.37;;
4756;SDS011;2392;52.578;13.426;2023-10-31T01:41:56;23.60;;;8.60;;
4756;SDS011;2392;52.578;13.426;2023-10-31T01:44:23;26.77;;;8.60;;
4756;SDS011;2392;52.578;13.426;2023-10-31T01:46:50;24.27;;;9.00;;
4756;SDS011;2392;52.578;13.426;2023-10-31T01:49:18;25.87;;;10.00;;
4756;SDS011;2392;52.578;13.426;2023-10-31T01:51:45;29.23;;;9.10;;
4756;SDS011;2392;52.578;13.426;2023-10-31T01:54:12;22.50;;;8.40;;
4756;SDS011;2392;52.578;13.426;2023-10-31T01:56:40;24.20;;;8.60;;
4756;SDS011;2392;52.578;13.426;2023-10-31T01:59:07;30.03;;;9.27;;
4756;SDS011;2392;52.578;13.426;2023-10-31T02:01:35;25.70;;;9.33;;
4756;SDS011;2392;52.578;13.426;2023-10-31T02:04:04;28.80;;;8.90;;
4756;SDS011;2392;52.578;13.426;2023-10-31T02:06:32;24.20;;;9.07;;
4756;SDS011;2392;52.578;13.426;2023-10-31T02:08:59;25.60;;;8.73;;
4756;SDS011;2392;52.578;13.426;2023-10-31T02:11:25;25.63;;;9.20;;
4756;SDS011;2392;52.578;13.426;2023-10-31T02:13:52;26.37;;;10.33;;
4756;SDS011;2392;52.578;13.426;2023-10-31T02:16:19;28.70;;;9.90;;
4756;SDS011;2392;52.578;13.426;2023-10-31T02:18:45;27.43;;;9.10;;
4756;SDS011;2392;52.578;13.426;2023-10-31T02:21:12;24.47;;;9.27;;
4756;SDS011;2392;52.578;13.426;2023-10-31T02:23:40;27.07;;;9.37;;
4756;SDS011;2392;52.578;13.426;2023-10-31T02:26:07;24.80;;;9.47;;
4756;SDS011;2392;52.578;13.426;2023-10-31T02:28:33;23.83;;;9.43;;
4756;SDS011;2392;52.578;13.426;2023-10-31T02:31:00;27.07;;;9.43;;
4756;SDS011;2392;52.578;13.426;2023-10-31T02:33:27;27.90;;;9.63;;
4756;SDS011;2392;52.578;13.426;2023-10-31T02:35:53;27.40;;;10.30;;
4756;SDS011;2392;52.578;13.426;2023-10-31T02:38:20;26.90;;;10.00;;
4756;SDS011;2392;52.578;13.426;2023-10-31T02:40:48;28.50;;;9.63;;
4756;SDS011;2392;52.578;13.426;2023-10-31T02:43:14;27.87;;;10.00;;
4756;SDS011;2392;52.578;13.426;2023-10-31T02:45:41;24.80;;;9.83;;
4756;SDS011;2392;52.578;13.426;2023-10-31T02:48:07;27.50;;;10.40;;
4756;SDS011;2392;52.578;13.426;2023-10-31T02:50:34;25.57;;;8.90;;
4756;SDS011;2392;52.578;13.426;2023-10-31T02:53:02;26.30;;;9.80;;
4756;SDS011;2392;52.578;13.426;2023-10-31T02:55:28;28.07;;;10.03;;
4756;SDS011;2392;52.578;13.426;2023-10-31T02:57:57;27.70;;;9.23;;
4756;SDS011;2392;52.578;13.426;2023-10-31T03:00:23;23.93;;;9.07;;
4756;SDS011;2392;52.578;13.426;2023-10-31T03:02:51;25.10;;;9.13;;
4756;SDS011;2392;52.578;13.426;2023-10-31T03:05:17;24.93;;;9.30;;
4756;SDS011;2392;52.578;13.426;2023-10-31T03:07:44;26.10;;;9.37;;
4756;SDS011;2392;52.578;13.426;2023-10-31T03:10:11;28.50;;;9.80;;
4756;SDS011;2392;52.578;13.426;2023-10-31T03:12:37;28.20;;;9.73;;
4756;SDS011;2392;52.578;13.426;2023-10-31T03:15:06;24.27;;;9.27;;
4756;SDS011;2392;52.578;13.426;2023-10-31T03:17:33;25.57;;;9.93;;
4756;SDS011;2392;52.578;13.426;2023-10-31T03:20:00;27.10;;;9.50;;
4756;SDS011;2392;52.578;13.426;2023-10-31T03:22:27;24.13;;;9.30;;
4756;SDS011;2392;52.578;13.426;2023-10-31T03:24:54;25.20;;;8.80;;
4756;SDS011;2392;52.578;13.426;2023-10-31T03:27:20;26.70;;;10.13;;
4756;SDS011;2392;52.578;13.426;2023-10-31T03:29:47;24.80;;;9.20;;
4756;SDS011;2392;52.578;13.426;2023-10-31T03:32:16;27.43;;;10.50;;
4756;SDS011;2392;52.578;13.426;2023-10-31T03:34:42;27.43;;;10.67;;
4756;SDS011;2392;52.578;13.426;2023-10-31T03:37:09;28.57;;;10.27;;
4756;SDS011;2392;52.578;13.426;2023-10-31T03:39:36;28.87;;;10.53;;
4756;SDS011;2392;52.578;13.426;2023-10-31T03:42:02;28.30;;;11.43;;
4756;SDS011;2392;52.578;13.426;2023-10-31T03:44:30;27.23;;;9.60;;
4756;SDS011;2392;52.578;13.426;2023-10-31T03:46:57;31.60;;;11.07;;
4756;SDS011;2392;52.578;13.426;2023-10-31T03:49:25;27.23;;;10.63;;
4756;SDS011;2392;52.578;13.426;2023-10-31T03:51:51;33.30;;;10.57;;
4756;SDS011;2392;52.578;13.426;2023-10-31T03:54:18;27.13;;;11.17;;
4756;SDS011;2392;52.578;13.426;2023-10-31T03:56:45;28.37;;;10.70;;
4756;SDS011;2392;52.578;13.426;2023-10-31T03:59:12;27.47;;;10.93;;
4756;SDS011;2392;52.578;13.426;2023-10-31T04:01:39;26.47;;;11.03;;
4756;SDS011;2392;52.578;13.426;2023-10-31T04:04:05;29.80;;;11.57;;
4756;SDS011;2392;52.578;13.426;2023-10-31T04:06:33;29.50;;;12.27;;
4756;SDS011;2392;52.578;13.426;2023-10-31T04:09:00;26.00;;;10.50;;
4756;SDS011;2392;52.578;13.426;2023-10-31T04:11:26;34.97;;;10.40;;
4756;SDS011;2392;52.578;13.426;2023-10-31T04:13:53;30.67;;;11.63;;
4756;SDS011;2392;52.578;13.426;2023-10-31T04:16:20;25.30;;;10.70;;
4756;SDS011;2392;52.578;13.426;2023-10-31T04:18:46;26.23;;;10.60;;
4756;SDS011;2392;52.578;13.426;2023-10-31T04:21:13;30.27;;;11.70;;
4756;SDS011;2392;52.578;13.426;2023-10-31T04:23:41;29.90;;;11.07;;
4756;SDS011;2392;52.578;13.426;2023-10-31T04:26:07;26.40;;;11.13;;
4756;SDS011;2392;52.578;13.426;2023-10-31T04:28:34;26.70;;;10.90;;
4756;SDS011;2392;52.578;13.426;2023-10-31T04:31:01;32.53;;;11.47;;
4756;SDS011;2392;52.578;13.426;2023-10-31T04:33:28;28.50;;;11.30;;
4756;SDS011;2392;52.578;13.426;2023-10-31T04:35:55;30.70;;;11.87;;
4756;SDS011;2392;52.578;13.426;2023-10-31T04:38:22;28.67;;;12.57;;
4756;SDS011;2392;52.578;13.426;2023-10-31T04:40:50;26.23;;;11.07;;
4756;SDS011;2392;52.578;13.426;2023-10-31T04:43:16;26.20;;;10.07;;
4756;SDS011;2392;52.578;13.426;2023-10-31T04:45:43;28.70;;;11.20;;
4756;SDS011;2392;52.578;13.426;2023-10-31T04:48:09;26.03;;;10.37;;
4756;SDS011;2392;52.578;13.426;2023-10-31T04:50:36;28.13;;;10.60;;
4756;SDS011;2392;52.578;13.426;2023-10-31T04:53:03;31.93;;;11.23;;
4756;SDS011;2392;52.578;13.426;2023-10-31T04:55:30;27.77;;;10.33;;
4756;SDS011;2392;52.578;13.426;2023-10-31T04:57:58;28.77;;;11.40;;
4756;SDS011;2392;52.578;13.426;2023-10-31T05:00:24;38.10;;;13.43;;
4756;SDS011;2392;52.578;13.426;2023-10-31T05:02:51;30.03;;;10.80;;
4756;SDS011;2392;52.578;13.426;2023-10-31T05:05:18;24.17;;;9.57;;
4756;SDS011;2392;52.578;13.426;2023-10-31T05:07:44;26.87;;;10.20;;
4756;SDS011;2392;52.578;13.426;2023-10-31T05:10:11;24.90;;;10.40;;
4756;SDS011;2392;52.578;13.426;2023-10-31T05:12:38;32.73;;;10.60;;
4756;SDS011;2392;52.578;13.426;2023-10-31T05:15:07;27.50;;;10.70;;
4756;SDS011;2392;52.578;13.426;2023-10-31T05:17:34;29.80;;;12.30;;
4756;SDS011;2392;52.578;13.426;2023-10-31T05:20:00;31.63;;;11.70;;
4756;SDS011;2392;52.578;13.426;2023-10-31T05:22:27;28.50;;;11.70;;
4756;SDS011;2392;52.578;13.426;2023-10-31T05:24:54;32.10;;;10.77;;
4756;SDS011;2392;52.578;13.426;2023-10-31T05:27:21;27.80;;;11.00;;
4756;SDS011;2392;52.578;13.426;2023-10-31T05:29:47;26.53;;;10.90;;
4756;SDS011;2392;52.578;13.426;2023-10-31T05:32:15;28.00;;;10.73;;
4756;SDS011;2392;52.578;13.426;2023-10-31T05:34:42;26.83;;;10.80;;
4756;SDS011;2392;52.578;13.426;2023-10-31T05:37:08;24.00;;;9.97;;
4756;SDS011;2392;52.578;13.426;2023-10-31T05:39:35;23.50;;;10.30;;
4756;SDS011;2392;52.578;13.426;2023-10-31T05:42:02;23.37;;;9.23;;
4756;SDS011;2392;52.578;13.426;2023-10-31T05:44:29;22.60;;;9.60;;
4756;SDS011;2392;52.578;13.426;2023-10-31T05:46:56;23.37;;;9.13;;
4756;SDS011;2392;52.578;13.426;2023-10-31T05:49:24;22.70;;;9.33;;
4756;SDS011;2392;52.578;13.426;2023-10-31T05:51:50;23.53;;;9.53;;
4756;SDS011;2392;52.578;13.426;2023-10-31T05:54:17;22.40;;;9.37;;
4756;SDS011;2392;52.578;13.426;2023-10-31T05:56:44;23.37;;;9.73;;
4756;SDS011;2392;52.578;13.426;2023-10-31T05:59:11;24.30;;;9.03;;
4756;SDS011;2392;52.578;13.426;2023-10-31T06:01:38;22.40;;;8.80;;
4756;SDS011;2392;52.578;13.426;2023-10-31T06:04:04;22.03;;;8.60;;
4756;SDS011;2392;52.578;13.426;2023-10-31T06:06:32;23.13;;;9.53;;
4756;SDS011;2392;52.578;13.426;2023-10-31T06:09:03;21.80;;;8.20;;
4756;SDS011;2392;52.578;13.426;2023-10-31T06:11:29;24.00;;;8.53;;
4756;SDS011;2392;52.578;13.426;2023-10-31T06:13:56;24.37;;;8.90;;
4756;SDS011;2392;52.578;13.426;2023-10-31T06:16:24;22.27;;;9.17;;
4756;SDS011;2392;52.578;13.426;2023-10-31T06:18:51;24.30;;;9.93;;
4756;SDS011;2392;52.578;13.426;2023-10-31T06:21:18;23.97;;;9.83;;
4756;SDS011;2392;52.578;13.426;2023-10-31T06:23:46;25.47;;;10.37;;
4756;SDS011;2392;52.578;13.426;2023-10-31T06:26:12;25.80;;;11.10;;
4756;SDS011;2392;52.578;13.426;2023-10-31T06:28:39;25.67;;;11.30;;
4756;SDS011;2392;52.578;13.426;2023-10-31T06:31:05;28.23;;;12.00;;
4756;SDS011;2392;52.578;13.426;2023-10-31T06:33:33;28.40;;;12.10;;
4756;SDS011;2392;52.578;13.426;2023-10-31T06:36:00;29.40;;;12.70;;
4756;SDS011;2392;52.578;13.426;2023-10-31T06:38:27;27.93;;;12.33;;
4756;SDS011;2392;52.578;13.426;2023-10-31T06:40:55;28.80;;;12.40;;
4756;SDS011;2392;52.578;13.426;2023-10-31T06:43:22;30.00;;;13.20;;
4756;SDS011;2392;52.578;13.426;2023-10-31T06:45:52;29.30;;;13.37;;
4756;SDS011;2392;52.578;13.426;2023-10-31T06:48:19;28.90;;;13.00;;
4756;SDS011;2392;52.578;13.426;2023-10-31T06:50:46;28.40;;;12.53;;
4756;SDS011;2392;52.578;13.426;2023-10-31T06:53:12;29.33;;;13.77;;
4756;SDS011;2392;52.578;13.426;2023-10-31T06:55:39;27.40;;;12.10;;
4756;SDS011;2392;52.578;13.426;2023-10-31T06:58:07;31.97;;;12.33;;
4756;SDS011;2392;52.578;13.426;2023-10-31T07:00:34;30.90;;;13.00;;
4756;SDS011;2392;52.578;13.426;2023-10-31T07:03:00;29.70;;;12.33;;
4756;SDS011;2392;52.578;13.426;2023-10-31T07:05:31;29.20;;;12.43;;
4756;SDS011;2392;52.578;13.426;2023-10-31T07:07:58;26.50;;;11.90;;
4756;SDS011;2392;52.578;13.426;2023-10-31T07:10:24;27.40;;;10.00;;
4756;SDS011;2392;52.578;13.426;2023-10-31T07:12:51;27.20;;;11.10;;
4756;SDS011;2392;52.578;13.426;2023-10-31T07:15:19;26.87;;;10.47;;
4756;SDS011;2392;52.578;13.426;2023-10-31T07:17:46;25.20;;;10.73;;
4756;SDS011;2392;52.578;13.426;2023-10-31T07:20:12;25.37;;;9.80;;
4756;SDS011;2392;52.578;13.426;2023-10-31T07:22:39;22.17;;;7.60;;
4756;SDS011;2392;52.578;13.426;2023-10-31T07:25:06;20.87;;;6.40;;
4756;SDS011;2392;52.578;13.426;2023-10-31T07:27:33;22.87;;;6.47;;
4756;SDS011;2392;52.578;13.426;2023-10-31T07:30:00;20.03;;;6.03;;
4756;SDS011;2392;52.578;13.426;2023-10-31T07:32:29;22.77;;;5.70;;
4756;SDS011;2392;52.578;13.426;2023-10-31T07:34:55;23.83;;;6.53;;
4756;SDS011;2392;52.578;13.426;2023-10-31T07:37:22;18.50;;;5.60;;
4756;SDS011;2392;52.578;13.426;2023-10-31T07:39:49;20.90;;;6.17;;
4756;SDS011;2392;52.578;13.426;2023-10-31T07:42:16;19.90;;;6.37;;
4756;SDS011;2392;52.578;13.426;2023-10-31T07:44:43;19.63;;;6.13;;
4756;SDS011;2392;52.578;13.426;2023-10-31T07:47:09;23.53;;;6.50;;
4756;SDS011;2392;52.578;13.426;2023-10-31T07:49:37;21.20;;;6.60;;
4756;SDS011;2392;52.578;13.426;2023-10-31T07:52:04;20.77;;;6.90;;
4756;SDS011;2392;52.578;13.426;2023-10-31T07:54:31;23.13;;;7.13;;
4756;SDS011;2392;52.578;13.426;2023-10-31T07:56:58;23.10;;;6.50;;
4756;SDS011;2392;52.578;13.426;2023-10-31T07:59:24;25.80;;;5.73;;
4756;SDS011;2392;52.578;13.426;2023-10-31T08:01:51;20.73;;;6.03;;
4756;SDS011;2392;52.578;13.426;2023-10-31T08:04:18;21.13;;;5.30;;
4756;SDS011;2392;52.578;13.426;2023-10-31T08:06:46;19.50;;;5.50;;
4756;SDS011;2392;52.578;13.426;2023-10-31T08:09:12;20.50;;;5.10;;
4756;SDS011;2392;52.578;13.426;2023-10-31T08:11:41;19.63;;;4.90;;
4756;SDS011;2392;52.578;13.426;2023-10-31T08:14:08;18.33;;;5.20;;
4756;SDS011;2392;52.578;13.426;2023-10-31T08:16:35;19.10;;;4.60;;
4756;SDS011;2392;52.578;13.426;2023-10-31T08:19:01;17.93;;;4.40;;
4756;SDS011;2392;52.578;13.426;2023-10-31T08:21:28;18.20;;;4.50;;
4756;SDS011;2392;52.578;13.426;2023-10-31T08:24:01;17.70;;;4.27;;
4756;SDS011;2392;52.578;13.426;2023-10-31T08:26:28;17.27;;;3.90;;
4756;SDS011;2392;52.578;13.426;2023-10-31T08:28:54;18.30;;;4.37;;
4756;SDS011;2392;52.578;13.426;2023-10-31T08:31:21;17.90;;;3.80;;
4756;SDS011;2392;52.578;13.426;2023-10-31T08:33:48;17.57;;;4.00;;
4756;SDS011;2392;52.578;13.426;2023-10-31T08:36:14;17.60;;;3.60;;
4756;SDS011;2392;52.578;13.426;2023-10-31T08:38:41;17.30;;;3.70;;
4756;SDS011;2392;52.578;13.426;2023-10-31T08:41:09;19.30;;;4.30;;
4756;SDS011;2392;52.578;13.426;2023-10-31T08:43:36;20.30;;;4.90;;
4756;SDS011;2392;52.578;13.426;2023-10-31T08:46:02;17.77;;;4.03;;
4756;SDS011;2392;52.578;13.426;2023-10-31T08:48:29;17.50;;;4.23;;
4756;SDS011;2392;52.578;13.426;2023-10-31T08:50:56;17.63;;;4.10;;
4756;SDS011;2392;52.578;13.426;2023-10-31T08:53:22;18.57;;;4.00;;
4756;SDS011;2392;52.578;13.426;2023-10-31T08:55:49;18.53;;;4.00;;
4756;SDS011;2392;52.578;13.426;2023-10-31T08:58:17;17.90;;;3.67;;
4756;SDS011;2392;52.578;13.426;2023-10-31T09:00:44;18.17;;;4.20;;
4756;SDS011;2392;52.578;13.426;2023-10-31T09:03:10;20.10;;;3.80;;
4756;SDS011;2392;52.578;13.426;2023-10-31T09:05:37;17.03;;;3.60;;
4756;SDS011;2392;52.578;13.426;2023-10-31T09:08:04;17.70;;;3.73;;
4756;SDS011;2392;52.578;13.426;2023-10-31T09:10:31;16.97;;;3.60;;
4756;SDS011;2392;52.578;13.426;2023-10-31T09:12:58;17.33;;;3.90;;
4756;SDS011;2392;52.578;13.426;2023-10-31T09:15:26;18.13;;;3.80;;
4756;SDS011;2392;52.578;13.426;2023-10-31T09:17:53;23.17;;;3.57;;
4756;SDS011;2392;52.578;13.426;2023-10-31T09:20:19;17.47;;;3.70;;
4756;SDS011;2392;52.578;13.426;2023-10-31T09:22:46;17.50;;;3.53;;
4756;SDS011;2392;52.578;13.426;2023-10-31T09:25:12;21.40;;;3.90;;
4756;SDS011;2392;52.578;13.426;2023-10-31T09:27:40;17.47;;;3.80;;
4756;SDS011;2392;52.578;13.426;2023-10-31T09:30:07;19.70;;;4.20;;
4756;SDS011;2392;52.578;13.426;2023-10-31T09:32:35;17.40;;;3.57;;
4756;SDS011;2392;52.578;13.426;2023-10-31T09:35:02;17.27;;;3.40;;
4756;SDS011;2392;52.578;13.426;2023-10-31T09:37:29;18.10;;;3.80;;
4756;SDS011;2392;52.578;13.426;2023-10-31T09:39:56;16.97;;;3.80;;
4756;SDS011;2392;52.578;13.426;2023-10-31T09:42:22;17.30;;;3.60;;
4756;SDS011;2392;52.578;13.426;2023-10-31T09:44:49;19.03;;;3.60;;
4756;SDS011;2392;52.578;13.426;2023-10-31T09:47:16;18.77;;;3.90;;
4756;SDS011;2392;52.578;13.426;2023-10-31T09:49:44;20.10;;;3.83;;
4756;SDS011;2392;52.578;13.426;2023-10-31T09:52:11;19.57;;;4.00;;
4756;SDS011;2392;52.578;13.426;2023-10-31T09:54:37;18.50;;;3.90;;
4756;SDS011;2392;52.578;13.426;2023-10-31T09:57:07;17.00;;;3.67;;
4756;SDS011;2392;52.578;13.426;2023-10-31T09:59:34;17.17;;;3.40;;
4756;SDS011;2392;52.578;13.426;2023-10-31T10:02:01;17.57;;;3.40;;
4756;SDS011;2392;52.578;13.426;2023-10-31T10:04:27;21.20;;;4.53;;
4756;SDS011;2392;52.578;13.426;2023-10-31T10:06:59;18.00;;;4.10;;
4756;SDS011;2392;52.578;13.426;2023-10-31T10:09:26;18.97;;;3.93;;
4756;SDS011;2392;52.578;13.426;2023-10-31T10:11:53;19.77;;;4.10;;
4756;SDS011;2392;52.578;13.426;2023-10-31T10:14:22;18.07;;;4.30;;
4756;SDS011;2392;52.578;13.426;2023-10-31T10:16:49;17.60;;;4.13;;
4756;SDS011;2392;52.578;13.426;2023-10-31T10:19:16;18.07;;;4.00;;
4756;SDS011;2392;52.578;13.426;2023-10-31T10:21:47;18.57;;;4.57;;
4756;SDS011;2392;52.578;13.426;2023-10-31T10:24:17;18.80;;;4.37;;
4756;SDS011;2392;52.578;13.426;2023-10-31T10:26:44;19.50;;;4.70;;
4756;SDS011;2392;52.578;13.426;2023-10-31T10:29:11;17.47;;;4.27;;
4756;SDS011;2392;52.578;13.426;2023-10-31T10:31:38;17.43;;;4.00;;
4756;SDS011;2392;52.578;13.426;2023-10-31T10:34:05;17.63;;;4.10;;
4756;SDS011;2392;52.578;13.426;2023-10-31T10:36:33;17.27;;;4.00;;
4756;SDS011;2392;52.578;13.426;2023-10-31T10:39:00;18.23;;;4.30;;
4756;SDS011;2392;52.578;13.426;2023-10-31T10:41:30;18.50;;;3.90;;
4756;SDS011;2392;52.578;13.426;2023-10-31T10:44:03;20.10;;;4.60;;
4756;SDS011;2392;52.578;13.426;2023-10-31T10:46:32;17.93;;;4.30;;
4756;SDS011;2392;52.578;13.426;2023-10-31T10:49:03;18.90;;;4.50;;
4756;SDS011;2392;52.578;13.426;2023-10-31T10:51:35;18.17;;;4.10;;
4756;SDS011;2392;52.578;13.426;2023-10-31T10:54:11;17.83;;;4.40;;
4756;SDS011;2392;52.578;13.426;2023-10-31T10:56:46;17.83;;;4.33;;
4756;SDS011;2392;52.578;13.426;2023-10-31T10:59:20;18.43;;;4.27;;
4756;SDS011;2392;52.578;13.426;2023-10-31T11:01:51;19.20;;;4.87;;
4756;SDS011;2392;52.578;13.426;2023-10-31T11:04:20;18.73;;;4.97;;
4756;SDS011;2392;52.578;13.426;2023-10-31T11:06:47;17.87;;;4.37;;
4756;SDS011;2392;52.578;13.426;2023-10-31T11:09:14;18.90;;;4.90;;
4756;SDS011;2392;52.578;13.426;2023-10-31T11:11:42;18.43;;;4.50;;
4756;SDS011;2392;52.578;13.426;2023-10-31T11:14:15;19.00;;;4.70;;
4756;SDS011;2392;52.578;13.426;2023-10-31T11:16:43;19.50;;;4.33;;
4756;SDS011;2392;52.578;13.426;2023-10-31T11:19:13;18.80;;;4.90;;
4756;SDS011;2392;52.578;13.426;2023-10-31T11:21:52;20.37;;;5.07;;
4756;SDS011;2392;52.578;13.426;2023-10-31T11:24:20;18.43;;;4.70;;
4756;SDS011;2392;52.578;13.426;2023-10-31T11:26:50;19.20;;;5.10;;
4756;SDS011;2392;52.578;13.426;2023-10-31T11:29:18;18.30;;;4.63;;
4756;SDS011;2392;52.578;13.426;2023-10-31T11:31:46;19.37;;;4.60;;
4756;SDS011;2392;52.578;13.426;2023-10-31T11:34:13;18.20;;;4.83;;
4756;SDS011;2392;52.578;13.426;2023-10-31T11:36:42;19.70;;;5.40;;
4756;SDS011;2392;52.578;13.426;2023-10-31T11:39:12;18.00;;;4.50;;
4756;SDS011;2392;52.578;13.426;2023-10-31T11:41:39;18.93;;;4.77;;
4756;SDS011;2392;52.578;13.426;2023-10-31T11:44:06;18.10;;;4.90;;
4756;SDS011;2392;52.578;13.426;2023-10-31T11:46:34;22.43;;;4.53;;
4756;SDS011;2392;52.578;13.426;2023-10-31T11:49:01;18.57;;;4.37;;
4756;SDS011;2392;52.578;13.426;2023-10-31T11:51:30;20.43;;;5.00;;
4756;SDS011;2392;52.578;13.426;2023-10-31T11:53:57;19.93;;;4.67;;
4756;SDS011;2392;52.578;13.426;2023-10-31T11:56:25;18.07;;;4.90;;
4756;SDS011;2392;52.578;13.426;2023-10-31T11:58:55;18.50;;;4.70;;
4756;SDS011;2392;52.578;13.426;2023-10-31T12:01:23;17.93;;;4.80;;
4756;SDS011;2392;52.578;13.426;2023-10-31T12:03:53;17.80;;;4.53;;
4756;SDS011;2392;52.578;13.426;2023-10-31T12:06:20;17.83;;;4.73;;
4756;SDS011;2392;52.578;13.426;2023-10-31T12:08:47;18.17;;;4.40;;
4756;SDS011;2392;52.578;13.426;2023-10-31T12:11:14;17.87;;;4.27;;
4756;SDS011;2392;52.578;13.426;2023-10-31T12:13:51;18.90;;;4.80;;
4756;SDS011;2392;52.578;13.426;2023-10-31T12:16:19;20.90;;;4.30;;
4756;SDS011;2392;52.578;13.426;2023-10-31T12:18:54;17.87;;;4.33;;
4756;SDS011;2392;52.578;13.426;2023-10-31T12:21:33;17.80;;;3.83;;
4756;SDS011;2392;52.578;13.426;2023-10-31T12:24:04;21.87;;;4.57;;
4756;SDS011;2392;52.578;13.426;2023-10-31T12:26:32;18.47;;;4.60;;
4756;SDS011;2392;52.578;13.426;2023-10-31T12:29:06;17.90;;;4.10;;
4756;SDS011;2392;52.578;13.426;2023-10-31T12:31:34;17.67;;;4.10;;
4756;SDS011;2392;52.578;13.426;2023-10-31T12:34:05;18.17;;;4.40;;
4756;SDS011;2392;52.578;13.426;2023-10-31T12:36:32;17.80;;;3.80;;
4756;SDS011;2392;52.578;13.426;2023-10-31T12:39:01;17.33;;;3.87;;
4756;SDS011;2392;52.578;13.426;2023-10-31T12:41:28;18.77;;;3.90;;
4756;SDS011;2392;52.578;13.426;2023-10-31T12:43:55;17.47;;;3.77;;
4756;SDS011;2392;52.578;13.426;2023-10-31T12:46:25;19.50;;;3.80;;
4756;SDS011;2392;52.578;13.426;2023-10-31T12:48:54;17.70;;;4.20;;
4756;SDS011;2392;52.578;13.426;2023-10-31T12:51:22;19.17;;;4.57;;
4756;SDS011;2392;52.578;13.426;2023-10-31T12:53:48;17.73;;;3.93;;
4756;SDS011;2392;52.578;13.426;2023-10-31T12:59:02;16.87;;;3.87;;
4756;SDS011;2392;52.578;13.426;2023-10-31T13:01:28;17.30;;;3.60;;
4756;SDS011;2392;52.578;13.426;2023-10-31T13:03:57;17.40;;;3.80;;
4756;SDS011;2392;52.578;13.426;2023-10-31T13:06:25;17.10;;;3.90;;
4756;SDS011;2392;52.578;13.426;2023-10-31T13:08:52;18.83;;;4.00;;
4756;SDS011;2392;52.578;13.426;2023-10-31T13:11:21;17.50;;;4.07;;
4756;SDS011;2392;52.578;13.426;2023-10-31T13:13:50;18.50;;;3.57;;
4756;SDS011;2392;52.578;13.426;2023-10-31T13:16:17;17.70;;;4.10;;
4756;SDS011;2392;52.578;13.426;2023-10-31T13:18:44;17.20;;;3.90;;
4756;SDS011;2392;52.578;13.426;2023-10-31T13:21:11;17.37;;;3.60;;
4756;SDS011;2392;52.578;13.426;2023-10-31T13:23:40;16.67;;;3.20;;
4756;SDS011;2392;52.578;13.426;2023-10-31T13:26:10;20.33;;;3.70;;
4756;SDS011;2392;52.578;13.426;2023-10-31T13:28:36;16.87;;;3.50;;
4756;SDS011;2392;52.578;13.426;2023-10-31T13:31:04;17.40;;;3.73;;
4756;SDS011;2392;52.578;13.426;2023-10-31T13:33:31;17.20;;;3.50;;
4756;SDS011;2392;52.578;13.426;2023-10-31T13:35:58;18.83;;;4.27;;
4756;SDS011;2392;52.578;13.426;2023-10-31T13:38:25;20.17;;;5.10;;
4756;SDS011;2392;52.578;13.426;2023-10-31T13:40:53;16.83;;;3.60;;
4756;SDS011;2392;52.578;13.426;2023-10-31T13:43:20;17.43;;;4.10;;
4756;SDS011;2392;52.578;13.426;2023-10-31T13:45:46;17.90;;;3.80;;
4756;SDS011;2392;52.578;13.426;2023-10-31T13:48:13;17.97;;;3.97;;
4756;SDS011;2392;52.578;13.426;2023-10-31T13:50:40;16.80;;;3.73;;
4756;SDS011;2392;52.578;13.426;2023-10-31T13:53:07;16.77;;;3.60;;
4756;SDS011;2392;52.578;13.426;2023-10-31T13:55:33;19.90;;;3.70;;
4756;SDS011;2392;52.578;13.426;2023-10-31T13:58:01;17.50;;;3.87;;
4756;SDS011;2392;52.578;13.426;2023-10-31T14:00:28;17.40;;;3.30;;
4756;SDS011;2392;52.578;13.426;2023-10-31T14:02:55;17.13;;;3.70;;
4756;SDS011;2392;52.578;13.426;2023-10-31T14:05:22;18.13;;;4.00;;
4756;SDS011;2392;52.578;13.426;2023-10-31T14:07:49;17.43;;;3.90;;
4756;SDS011;2392;52.578;13.426;2023-10-31T14:10:16;17.50;;;3.80;;
4756;SDS011;2392;52.578;13.426;2023-10-31T14:12:44;19.13;;;4.20;;
4756;SDS011;2392;52.578;13.426;2023-10-31T14:15:12;17.40;;;3.83;;
4756;SDS011;2392;52.578;13.426;2023-10-31T14:17:39;17.07;;;3.37;;
4756;SDS011;2392;52.578;13.426;2023-10-31T14:20:06;18.50;;;4.10;;
4756;SDS011;2392;52.578;13.426;2023-10-31T14:22:34;19.20;;;3.87;;
4756;SDS011;2392;52.578;13.426;2023-10-31T14:25:00;17.83;;;3.83;;
4756;SDS011;2392;52.578;13.426;2023-10-31T14:27:29;17.03;;;3.67;;
4756;SDS011;2392;52.578;13.426;2023-10-31T14:29:56;17.20;;;3.60;;
4756;SDS011;2392;52.578;13.426;2023-10-31T14:32:24;18.83;;;3.80;;
4756;SDS011;2392;52.578;13.426;2023-10-31T14:34:50;17.13;;;3.97;;
4756;SDS011;2392;52.578;13.426;2023-10-31T14:37:17;17.63;;;4.20;;
4756;SDS011;2392;52.578;13.426;2023-10-31T14:39:44;19.57;;;4.00;;
4756;SDS011;2392;52.578;13.426;2023-10-31T14:42:18;18.10;;;4.57;;
4756;SDS011;2392;52.578;13.426;2023-10-31T14:44:45;17.47;;;4.30;;
4756;SDS011;2392;52.578;13.426;2023-10-31T14:47:12;17.83;;;3.90;;
4756;SDS011;2392;52.578;13.426;2023-10-31T14:49:40;16.73;;;3.40;;